Flight Track Log - Related Links

Times and Time Zones

All times are in EDT time to prevent confusion due to time zone crossing. See the EJA941 flight status page for this flight to view local times or setup timezone preferences in your user account.

Time Position Orientation Groundspeed Altitude Reporting Facility
EDT Latitude Longitude Course Direction KTS MPH feet Rate Location/Type
Fri 06:36:15 PM 41.1000 -73.7833 266° West 204 235 3,500  Level New TRACON
Fri 06:37:16 PM 41.1167 -73.8667 285° West 249 287 4,000 248 Climbing New TRACON
Fri 06:38:16 PM 41.1167 -73.9667 270° West 252 290 4,000  Level New TRACON
Fri 06:39:15 PM 41.1333 -74.0500 285° West 248 285 4,000  Level New TRACON
Fri 06:40:15 PM 41.1833 -74.0667 346° North 261 300 4,000  Level New TRACON
Fri 06:41:00 PM 41.2538 -73.8117 266° West  Level FlightAware
Fri 06:41:10 PM 41.2167 -73.9833 62° Northeast 229 264 4,000  Level New TRACON
Fri 06:42:09 PM 41.2333 -73.9167 72° East 232 267 4,000  Level New TRACON
Fri 06:43:09 PM 41.1833 -73.8667 143° Southeast 225 259 4,000  Level New TRACON
Fri 06:44:09 PM 41.1167 -73.8667 180° South 237 273 4,000  Level New TRACON
Fri 06:45:09 PM 41.1167 -73.9500 270° West 219 252 4,000  Level New TRACON
Fri 06:46:09 PM 41.1500 -74.0333 298° West 256 295 4,000  Level New TRACON
Fri 06:47:09 PM 41.1667 -74.1167 285° West 241 277 4,000  Level New TRACON
Fri 06:48:09 PM 41.1500 -74.1667 246° West 175 201 4,000  Level New TRACON
Fri 06:49:10 PM 41.1333 -74.2333 252° West 174 200 4,000  Level New TRACON
Fri 06:50:09 PM 41.1167 -74.3000 252° West 183 211 4,000  Level New TRACON
Fri 06:51:09 PM 41.0833 -74.2667 143° Southeast 211 243 4,000 -496 Level New TRACON
Fri 06:52:10 PM 41.1000 -74.2000 72° East 182 209 3,000 -496 Descending New TRACON
Fri 06:53:10 PM 41.1000 -74.1333 90° East 183 211 3,000 -454 Level New TRACON
Fri 06:54:09 PM 41.0833 -74.0833 114° Southeast 179 206 2,100 -504 Descending New TRACON
Fri 06:55:09 PM 41.0500 -74.0333 131° Southeast 191 220 2,000 -50 Descending New TRACON
Fri 06:56:09 PM 41.0000 -74.0500 194° South 183 211 2,000  Level New TRACON
Fri 06:57:10 PM 40.9500 -74.0500 180° South 174 200 2,000 -429 Level New TRACON
Fri 06:58:15 PM 40.9000 -74.0500 180° South 144 166 1,100 -816 Descending New TRACON
Fri 06:59:15 PM 40.8667 -74.0667 201° Southwest 131 151 300 -800 Descending New TRACON
Fri 07:01:00 PM 40.8500 -74.0500 114° Southeast  Level FlightAware
Fri 07:08:00 PM 40.8501 -74.0608 114° Southeast  Level Estimated
Fri 07:09:00 PM 40.8501 -74.0608 114° Southeast  Level Estimated
Fri 07:10:00 PM 40.8501 -74.0608 114° Southeast  Level Estimated
Fri 07:11:00 PM 40.8501 -74.0608 114° Southeast  Level Estimated
Fri 07:12:00 PM 40.8501 -74.0608 114° Southeast  Level Estimated
Fri 07:13:00 PM 40.8501 -74.0608 114° Southeast  Level Estimated

Login

Don't have an account? Register now (free) for customized features, flight alerts, and more!